AKDT,Max TemperatureF,Mean TemperatureF,Min TemperatureF,Max Dew PointF,MeanDew PointF,Min DewpointF,Max Humidity, Mean Humidity, Min Humidity, Max Sea Level PressureIn, Mean Sea Level PressureIn, Min Sea Level PressureIn, Max VisibilityMiles, Mean VisibilityMiles, Min VisibilityMiles, Max Wind SpeedMPH, Mean Wind SpeedMPH, Max Gust SpeedMPH,PrecipitationIn, CloudCover, Events, WindDirDegrees
2013-5-1,43,41,39,43,39,34,0,0,0,30.38,30.27,30.21,10,5,2,31,16,48,0.87,8,Rain,141
2013-5-2,48,46,44,46,45,43,0,0,0,30.55,30.38,30.23,10,7,1,22,13,35,0.43,8,Rain,142
2013-5-3,55,50,44,46,43,39,0,0,0,30.59,30.55,30.48,10,10,10,8,1,12,0.00,7,Rain,155
2013-5-4,62,55,48,49,46,41,0,0,0,30.46,30.41,30.30,10,10,6,10,5,13,T,5,Rain,162
2013-5-5,65,54,43,49,46,43,0,0,0,30.29,30.15,29.96,10,6,0,10,4,15,0.00,4,Fog,317
2013-5-6,60,55,49,47,43,40,0,0,0,30.13,30.06,29.96,10,10,10,17,9,25,0.00,0,,325
2013-5-7,65,56,46,40,37,29,0,0,0,30.12,30.06,30.02,10,10,10,20,9,23,0.00,2,,322
2013-5-8,66,54,41,43,40,35,0,0,0,30.18,30.11,30.04,10,10,10,7,4,12,0.00,1,,297
2013-5-9,54,48,42,46,44,40,0,0,0,30.27,30.23,30.19,10,5,0,9,3,13,0.00,5,Fog,159
2013-5-10,55,50,44,46,44,43,0,0,0,30.24,30.17,30.02,10,8,1,9,4,12,0.01,6,,159
2013-5-11,52,50,48,50,48,43,0,0,0,30.01,29.86,29.68,10,6,2,29,9,38,0.54,8,Rain,140
2013-5-12,51,50,48,50,48,46,0,0,0,29.72,29.67,29.61,10,4,0,16,6,24,0.40,8,Fog-Rain,146
2013-5-13,50,49,47,47,46,44,0,0,0,29.86,29.76,29.69,10,8,2,20,13,33,0.24,8,Rain,150
2013-5-14,50,48,46,47,45,43,0,0,0,29.97,29.94,29.88,10,9,5,18,10,28,0.35,8,Rain,137
2013-5-15,50,48,46,49,47,43,0,0,0,30.04,29.97,29.87,10,5,1,15,6,18,0.16,8,Rain,137
2013-5-16,55,51,47,48,47,43,0,0,0,30.03,30.00,29.91,10,8,2,10,6,13,0.02,7,Rain,147
2013-5-17,53,50,47,48,47,46,0,0,0,29.89,29.85,29.80,10,10,2,12,5,16,0.03,8,Rain,149
2013-5-18,55,51,47,47,44,31,0,0,0,30.38,30.03,29.84,10,9,4,17,9,25,0.54,6,Rain,182
2013-5-19,51,45,39,39,36,32,0,0,0,30.53,30.48,30.39,10,10,8,12,2,18,T,8,Rain,257
2013-5-20,54,47,39,39,35,32,0,0,0,30.48,30.31,30.13,10,10,10,15,7,20,T,7,Rain,327
2013-5-21,65,55,45,40,36,34,0,0,0,30.11,29.99,29.92,10,10,10,18,10,24,0.00,3,,332
2013-5-22,68,59,50,44,39,36,0,0,0,29.97,29.94,29.91,10,10,10,18,9,24,0.00,4,,324
2013-5-23,70,61,52,47,40,38,0,0,0,29.96,29.91,29.88,10,10,10,14,8,20,0.00,5,,321
2013-5-24,53,51,49,47,45,43,0,0,0,30.06,30.00,29.92,10,10,10,15,8,18,T,7,Rain,140
2013-5-25,65,57,48,48,46,43,0,0,0,30.06,30.04,30.01,10,10,10,8,2,12,0.02,6,Rain,262
2013-5-26,59,53,47,46,44,40,0,0,0,30.02,29.95,29.89,10,10,10,6,2,8,0.00,5,,140
2013-5-27,72,59,45,52,47,43,0,0,0,29.90,29.74,29.63,10,10,10,9,3,13,T,3,,284
2013-5-28,63,56,49,52,50,49,0,0,0,29.67,29.64,29.60,10,10,5,12,4,16,T,6,Rain,160
2013-5-29,59,55,51,50,46,41,0,0,0,29.86,29.77,29.69,10,10,10,10,6,16,0.03,6,Rain,145
2013-5-30,55,52,48,50,48,46,0,0,0,30.16,30.00,29.87,10,9,3,10,3,15,0.09,8,Rain,158
2013-5-31,56,53,49,50,48,45,0,0,0,30.29,30.25,30.18,10,9,2,14,6,18,0.32,7,Rain,139